createdAt,value
2022-08-26T00:00:43.739Z,1010.04
2022-08-26T00:01:44.812Z,1010.09
2022-08-26T00:02:43.785Z,1010.02
2022-08-26T00:03:43.829Z,1010.03
2022-08-26T00:04:43.830Z,1010.02
2022-08-26T00:05:43.856Z,1010.04
2022-08-26T00:06:46.130Z,1010.04
2022-08-26T00:07:43.900Z,1010.06
2022-08-26T00:08:43.922Z,1010.06
2022-08-26T00:09:47.370Z,1010.03
2022-08-26T00:10:43.970Z,1010.03
2022-08-26T00:11:43.992Z,1010.00
2022-08-26T00:12:44.038Z,1009.98
2022-08-26T00:13:47.906Z,1009.99
2022-08-26T00:14:44.060Z,1009.99
2022-08-26T00:15:44.085Z,1009.98
2022-08-26T00:16:47.507Z,1009.97
2022-08-26T00:17:44.129Z,1009.99
2022-08-26T00:18:44.154Z,1009.99
2022-08-26T00:19:44.188Z,1009.96
2022-08-26T00:20:44.197Z,1009.96
2022-08-26T00:21:44.221Z,1009.96
2022-08-26T00:22:44.243Z,1009.98
2022-08-26T00:23:44.268Z,1009.96
2022-08-26T00:24:48.090Z,1009.95
2022-08-26T00:25:44.314Z,1009.94
2022-08-26T00:26:44.589Z,1009.94
2022-08-26T00:27:44.359Z,1009.94
2022-08-26T00:28:44.383Z,1009.95
2022-08-26T00:29:44.405Z,1009.88
2022-08-26T00:30:44.435Z,1009.92
2022-08-26T00:31:45.305Z,1009.92
2022-08-26T00:32:44.480Z,1009.91
2022-08-26T00:33:44.500Z,1009.89
2022-08-26T00:34:44.519Z,1009.92
2022-08-26T00:35:45.348Z,1009.87
2022-08-26T00:36:44.564Z,1009.87
2022-08-26T00:37:44.588Z,1009.87
2022-08-26T00:38:44.611Z,1009.87
2022-08-26T00:39:44.636Z,1009.88
2022-08-26T00:40:44.654Z,1009.84
2022-08-26T00:41:44.678Z,1009.87
2022-08-26T00:42:45.935Z,1009.87
2022-08-26T00:43:47.427Z,1009.83
2022-08-26T00:44:44.747Z,1009.83
2022-08-26T00:45:44.820Z,1009.85
2022-08-26T00:46:46.572Z,1009.83
2022-08-26T00:47:44.814Z,1009.83
2022-08-26T00:48:44.838Z,1009.81
2022-08-26T00:49:44.861Z,1009.79
2022-08-26T00:50:44.885Z,1009.77
2022-08-26T00:51:44.903Z,1009.79
2022-08-26T00:52:44.929Z,1009.76
2022-08-26T00:53:44.951Z,1009.77
2022-08-26T00:54:44.974Z,1009.79
2022-08-26T00:55:44.997Z,1009.75
2022-08-26T00:56:45.019Z,1009.80
2022-08-26T00:57:45.041Z,1009.79
2022-08-26T00:58:45.068Z,1009.76
2022-08-26T00:59:45.089Z,1009.76
2022-08-26T01:00:45.314Z,1009.77
2022-08-26T01:01:46.069Z,1009.78
2022-08-26T01:02:46.833Z,1009.76
2022-08-26T01:03:45.178Z,1009.77
2022-08-26T01:04:45.202Z,1009.76
2022-08-26T01:05:45.224Z,1009.76
2022-08-26T01:06:45.249Z,1009.78
2022-08-26T01:07:45.270Z,1009.77
2022-08-26T01:08:45.293Z,1009.71
2022-08-26T01:09:45.317Z,1009.70
2022-08-26T01:10:45.339Z,1009.72
2022-08-26T01:11:45.362Z,1009.73
2022-08-26T01:12:45.383Z,1009.72
2022-08-26T01:13:45.407Z,1009.69
2022-08-26T01:14:46.369Z,1009.70
2022-08-26T01:15:45.451Z,1009.74
2022-08-26T01:16:45.546Z,1009.73
2022-08-26T01:17:45.497Z,1009.73
2022-08-26T01:18:45.521Z,1009.72
2022-08-26T01:19:45.545Z,1009.75
2022-08-26T01:20:45.566Z,1009.76
2022-08-26T01:21:45.590Z,1009.75
2022-08-26T01:22:45.611Z,1009.79
2022-08-26T01:23:45.636Z,1009.75
2022-08-26T01:24:45.660Z,1009.73
2022-08-26T01:25:45.685Z,1009.74
2022-08-26T01:26:45.707Z,1009.71
2022-08-26T01:27:45.726Z,1009.70
2022-08-26T01:28:45.751Z,1009.71
2022-08-26T01:29:45.775Z,1009.70
2022-08-26T01:30:45.795Z,1009.71
2022-08-26T01:31:45.889Z,1009.70
2022-08-26T01:32:45.842Z,1009.73
2022-08-26T01:33:45.864Z,1009.67
2022-08-26T01:34:45.892Z,1009.69
2022-08-26T01:35:45.916Z,1009.68
2022-08-26T01:36:49.296Z,1009.65
2022-08-26T01:37:45.963Z,1009.67
2022-08-26T01:38:45.980Z,1009.65
2022-08-26T01:39:46.004Z,1009.65
2022-08-26T01:40:46.027Z,1009.69
2022-08-26T01:41:46.048Z,1009.65
2022-08-26T01:42:46.072Z,1009.66
2022-08-26T01:43:46.093Z,1009.66
2022-08-26T01:44:46.126Z,1009.68
2022-08-26T01:45:46.170Z,1009.65
2022-08-26T01:46:46.170Z,1009.64
2022-08-26T01:47:46.187Z,1009.62
2022-08-26T01:48:46.213Z,1009.62
2022-08-26T01:49:46.237Z,1009.64
2022-08-26T01:50:46.259Z,1009.60
2022-08-26T01:51:46.278Z,1009.54
2022-08-26T01:52:46.597Z,1009.56
2022-08-26T01:53:46.327Z,1009.53
2022-08-26T01:54:50.492Z,1009.54
2022-08-26T01:55:46.372Z,1009.53
2022-08-26T01:56:46.396Z,1009.56
2022-08-26T01:57:46.417Z,1009.55
2022-08-26T01:58:46.442Z,1009.54
2022-08-26T01:59:46.465Z,1009.52
2022-08-26T02:00:46.574Z,1009.57
2022-08-26T02:01:46.510Z,1009.53
2022-08-26T02:02:46.534Z,1009.55
2022-08-26T02:03:46.556Z,1009.57
2022-08-26T02:04:46.630Z,1009.57
2022-08-26T02:05:46.602Z,1009.55
2022-08-26T02:06:46.625Z,1009.53
2022-08-26T02:07:46.647Z,1009.56
2022-08-26T02:08:46.672Z,1009.58
2022-08-26T02:09:46.694Z,1009.52
2022-08-26T02:10:46.717Z,1009.58
2022-08-26T02:11:46.739Z,1009.54
2022-08-26T02:12:46.762Z,1009.57
2022-08-26T02:13:46.786Z,1009.55
2022-08-26T02:14:46.810Z,1009.59
2022-08-26T02:15:46.829Z,1009.56
2022-08-26T02:16:46.927Z,1009.60
2022-08-26T02:17:46.879Z,1009.57
2022-08-26T02:18:47.067Z,1009.58
2022-08-26T02:19:46.922Z,1009.56
2022-08-26T02:20:46.943Z,1009.53
2022-08-26T02:21:50.976Z,1009.53
2022-08-26T02:22:46.991Z,1009.51
2022-08-26T02:23:47.012Z,1009.50
2022-08-26T02:24:47.035Z,1009.50
2022-08-26T02:25:47.058Z,1009.49
2022-08-26T02:26:47.082Z,1009.48
2022-08-26T02:27:47.104Z,1009.51
2022-08-26T02:28:47.127Z,1009.49
2022-08-26T02:29:47.151Z,1009.45
2022-08-26T02:30:47.174Z,1009.51
2022-08-26T02:31:47.242Z,1009.50
2022-08-26T02:32:47.217Z,1009.49
2022-08-26T02:33:47.246Z,1009.50
2022-08-26T02:34:47.263Z,1009.51
2022-08-26T02:35:47.285Z,1009.50
2022-08-26T02:36:47.310Z,1009.51
2022-08-26T02:37:47.332Z,1009.54
2022-08-26T02:38:47.354Z,1009.53
2022-08-26T02:39:48.099Z,1009.47
2022-08-26T02:40:47.400Z,1009.51
2022-08-26T02:41:47.420Z,1009.51
2022-08-26T02:42:47.448Z,1009.50
2022-08-26T02:43:47.466Z,1009.49
2022-08-26T02:44:47.488Z,1009.49
2022-08-26T02:45:47.514Z,1009.45
2022-08-26T02:46:47.569Z,1009.47
2022-08-26T02:47:47.558Z,1009.45
2022-08-26T02:48:47.578Z,1009.47
2022-08-26T02:49:47.612Z,1009.44
2022-08-26T02:50:47.628Z,1009.42
2022-08-26T02:51:47.647Z,1009.38
2022-08-26T02:52:47.668Z,1009.41
2022-08-26T02:53:47.694Z,1009.38
2022-08-26T02:54:47.714Z,1009.42
2022-08-26T02:55:47.737Z,1009.38
2022-08-26T02:56:47.759Z,1009.36
2022-08-26T02:57:47.782Z,1009.41
2022-08-26T02:58:47.805Z,1009.39
2022-08-26T02:59:47.826Z,1009.41
2022-08-26T03:00:53.531Z,1009.40
2022-08-26T03:01:47.917Z,1009.38
2022-08-26T03:02:47.895Z,1009.41
2022-08-26T03:03:47.929Z,1009.38
2022-08-26T03:04:57.394Z,1009.38
2022-08-26T03:05:47.961Z,1009.36
2022-08-26T03:06:52.852Z,1009.40
2022-08-26T03:07:48.006Z,1009.37
2022-08-26T03:08:48.027Z,1009.39
2022-08-26T03:09:48.052Z,1009.35
2022-08-26T03:10:48.170Z,1009.36
2022-08-26T03:11:48.096Z,1009.34
2022-08-26T03:12:48.237Z,1009.34
2022-08-26T03:13:48.140Z,1009.36
2022-08-26T03:14:48.165Z,1009.36
2022-08-26T03:15:48.241Z,1009.36
2022-08-26T03:16:48.420Z,1009.36
2022-08-26T03:17:48.228Z,1009.37
2022-08-26T03:18:52.465Z,1009.34
2022-08-26T03:19:51.716Z,1009.33
2022-08-26T03:20:48.297Z,1009.28
2022-08-26T03:21:48.317Z,1009.32
2022-08-26T03:22:48.773Z,1009.32
2022-08-26T03:23:48.362Z,1009.29
2022-08-26T03:24:48.386Z,1009.32
2022-08-26T03:25:48.409Z,1009.26
2022-08-26T03:26:52.194Z,1009.26
2022-08-26T03:27:48.455Z,1009.30
2022-08-26T03:28:48.475Z,1009.27
2022-08-26T03:29:49.589Z,1009.23
2022-08-26T03:30:48.522Z,1009.27
2022-08-26T03:31:48.575Z,1009.24
2022-08-26T03:32:48.565Z,1009.26
2022-08-26T03:33:48.590Z,1009.22
2022-08-26T03:34:48.609Z,1009.25
2022-08-26T03:35:50.468Z,1009.18
2022-08-26T03:36:48.653Z,1009.22
2022-08-26T03:37:48.676Z,1009.23
2022-08-26T03:38:48.698Z,1009.21
2022-08-26T03:39:48.784Z,1009.21
2022-08-26T03:40:48.742Z,1009.19
2022-08-26T03:41:48.764Z,1009.17
2022-08-26T03:42:48.788Z,1009.16
2022-08-26T03:43:48.809Z,1009.17
2022-08-26T03:44:48.831Z,1009.15
2022-08-26T03:45:48.853Z,1009.20
2022-08-26T03:46:48.930Z,1009.19
2022-08-26T03:47:48.898Z,1009.23
2022-08-26T03:48:49.375Z,1009.19
2022-08-26T03:49:48.942Z,1009.22
2022-08-26T03:50:48.967Z,1009.17
2022-08-26T03:51:48.986Z,1009.15
2022-08-26T03:52:49.007Z,1009.16
2022-08-26T03:53:49.031Z,1009.15
2022-08-26T03:54:49.053Z,1009.18
2022-08-26T03:55:49.074Z,1009.17
2022-08-26T03:56:49.098Z,1009.14
2022-08-26T03:57:49.120Z,1009.14
2022-08-26T03:58:49.143Z,1009.12
2022-08-26T03:59:49.165Z,1009.14
2022-08-26T04:00:49.187Z,1009.12
2022-08-26T04:01:49.236Z,1009.09
2022-08-26T04:02:49.284Z,1009.11
2022-08-26T04:03:49.251Z,1009.11
2022-08-26T04:04:49.275Z,1009.09
2022-08-26T04:05:49.297Z,1009.06
2022-08-26T04:06:49.318Z,1009.07
2022-08-26T04:07:49.339Z,1009.04
2022-08-26T04:08:49.364Z,1009.06
2022-08-26T04:09:49.387Z,1009.06
2022-08-26T04:10:49.407Z,1009.02
2022-08-26T04:11:50.733Z,1009.02
2022-08-26T04:12:49.451Z,1009.05
2022-08-26T04:13:49.474Z,1009.05
2022-08-26T04:14:49.498Z,1009.09
2022-08-26T04:15:49.559Z,1009.07
2022-08-26T04:16:49.542Z,1009.04
2022-08-26T04:17:49.563Z,1009.10
2022-08-26T04:18:49.585Z,1009.07
2022-08-26T04:19:49.609Z,1009.09
2022-08-26T04:20:49.634Z,1009.08
2022-08-26T04:21:49.651Z,1009.14
2022-08-26T04:22:49.672Z,1009.12
2022-08-26T04:23:49.695Z,1009.15
2022-08-26T04:24:49.718Z,1009.11
2022-08-26T04:25:49.739Z,1009.15
2022-08-26T04:26:49.764Z,1009.13
2022-08-26T04:27:49.791Z,1009.13
2022-08-26T04:28:49.826Z,1009.09
2022-08-26T04:29:52.440Z,1009.07
2022-08-26T04:30:49.860Z,1009.10
2022-08-26T04:31:49.890Z,1009.10
2022-08-26T04:32:49.895Z,1009.10
2022-08-26T04:33:50.000Z,1009.09
2022-08-26T04:34:49.939Z,1009.08
2022-08-26T04:35:49.962Z,1009.07
2022-08-26T04:36:49.984Z,1009.03
2022-08-26T04:37:50.006Z,1009.04
2022-08-26T04:38:50.029Z,1009.03
2022-08-26T04:39:50.090Z,1009.06
2022-08-26T04:40:50.074Z,1009.01
2022-08-26T04:41:50.094Z,1009.10
2022-08-26T04:42:50.119Z,1009.05
2022-08-26T04:43:50.139Z,1009.06
2022-08-26T04:44:50.162Z,1009.05
2022-08-26T04:45:50.183Z,1009.05
2022-08-26T04:46:50.227Z,1009.03
2022-08-26T04:47:50.228Z,1009.03
2022-08-26T04:48:50.251Z,1009.07
2022-08-26T04:49:50.273Z,1009.07
2022-08-26T04:50:50.294Z,1009.01
2022-08-26T04:51:50.318Z,1009.06
2022-08-26T04:52:50.338Z,1009.01
2022-08-26T04:53:50.362Z,1009.08
2022-08-26T04:54:50.384Z,1009.05
2022-08-26T04:55:52.373Z,1009.06
2022-08-26T04:56:50.428Z,1009.04
2022-08-26T04:57:50.451Z,1009.04
2022-08-26T04:58:50.474Z,1009.07
2022-08-26T04:59:50.495Z,1009.10
2022-08-26T05:00:50.518Z,1009.11
2022-08-26T05:01:50.557Z,1009.16
2022-08-26T05:02:51.581Z,1009.16
2022-08-26T05:03:50.639Z,1009.16
2022-08-26T05:04:51.836Z,1009.16
2022-08-26T05:05:50.629Z,1009.16
2022-08-26T05:06:50.660Z,1009.14
2022-08-26T05:07:50.674Z,1009.17
2022-08-26T05:08:50.698Z,1009.10
2022-08-26T05:09:50.722Z,1009.16
2022-08-26T05:10:50.745Z,1009.18
2022-08-26T05:11:52.042Z,1009.18
2022-08-26T05:12:50.789Z,1009.18
2022-08-26T05:13:50.810Z,1009.18
2022-08-26T05:14:50.833Z,1009.19
2022-08-26T05:15:50.888Z,1009.18
2022-08-26T05:16:50.878Z,1009.17
2022-08-26T05:17:50.901Z,1009.19
2022-08-26T05:18:50.923Z,1009.18
2022-08-26T05:19:50.946Z,1009.21
2022-08-26T05:20:50.969Z,1009.21
2022-08-26T05:21:50.994Z,1009.23
2022-08-26T05:22:51.013Z,1009.25
2022-08-26T05:23:51.038Z,1009.28
2022-08-26T05:24:51.067Z,1009.23
2022-08-26T05:25:52.768Z,1009.25
2022-08-26T05:26:51.127Z,1009.25
2022-08-26T05:27:51.124Z,1009.24
2022-08-26T05:28:51.148Z,1009.26
2022-08-26T05:29:54.465Z,1009.23
2022-08-26T05:30:51.251Z,1009.24
2022-08-26T05:31:51.218Z,1009.25
2022-08-26T05:32:54.841Z,1009.30
2022-08-26T05:33:51.262Z,1009.31
2022-08-26T05:34:51.287Z,1009.27
2022-08-26T05:35:51.306Z,1009.30
2022-08-26T05:36:51.331Z,1009.34
2022-08-26T05:37:51.356Z,1009.33
2022-08-26T05:38:51.378Z,1009.31
2022-08-26T05:39:51.536Z,1009.34
2022-08-26T05:40:52.563Z,1009.36
2022-08-26T05:41:51.446Z,1009.33
2022-08-26T05:42:51.469Z,1009.29
2022-08-26T05:43:51.491Z,1009.31
2022-08-26T05:44:53.736Z,1009.30
2022-08-26T05:45:51.543Z,1009.32
2022-08-26T05:46:51.646Z,1009.32
2022-08-26T05:47:51.582Z,1009.25
2022-08-26T05:48:51.607Z,1009.30
2022-08-26T05:49:51.826Z,1009.28
2022-08-26T05:50:51.653Z,1009.25
2022-08-26T05:51:51.675Z,1009.27
2022-08-26T05:52:51.698Z,1009.25
2022-08-26T05:53:54.911Z,1009.29
2022-08-26T05:54:51.772Z,1009.27
2022-08-26T05:55:51.771Z,1009.29
2022-08-26T05:56:51.800Z,1009.23
2022-08-26T05:57:51.824Z,1009.23
2022-08-26T05:58:51.838Z,1009.17
2022-08-26T05:59:51.868Z,1009.19
2022-08-26T06:00:51.883Z,1009.21
2022-08-26T06:01:51.965Z,1009.23
2022-08-26T06:02:51.975Z,1009.25
2022-08-26T06:03:51.954Z,1009.24
2022-08-26T06:04:51.976Z,1009.23
2022-08-26T06:05:52.000Z,1009.25
2022-08-26T06:06:52.026Z,1009.26
2022-08-26T06:07:52.052Z,1009.29
2022-08-26T06:08:52.070Z,1009.22
2022-08-26T06:09:52.094Z,1009.24
2022-08-26T06:10:52.118Z,1009.23
2022-08-26T06:11:52.142Z,1009.28
2022-08-26T06:12:52.163Z,1009.29
2022-08-26T06:13:52.189Z,1009.29
2022-08-26T06:14:52.216Z,1009.26
2022-08-26T06:15:52.263Z,1009.27
2022-08-26T06:16:52.259Z,1009.30
2022-08-26T06:17:52.284Z,1009.28
2022-08-26T06:18:52.306Z,1009.29
2022-08-26T06:19:52.329Z,1009.28
2022-08-26T06:20:57.354Z,1009.31
2022-08-26T06:21:54.675Z,1009.26
2022-08-26T06:22:52.399Z,1009.32
2022-08-26T06:23:52.423Z,1009.29
2022-08-26T06:24:52.445Z,1009.28
2022-08-26T06:25:52.471Z,1009.26
2022-08-26T06:26:52.494Z,1009.26
2022-08-26T06:27:52.518Z,1009.24
2022-08-26T06:28:52.541Z,1009.28
2022-08-26T06:29:52.566Z,1009.26
2022-08-26T06:30:52.600Z,1009.27
2022-08-26T06:31:52.614Z,1009.26
2022-08-26T06:32:52.637Z,1009.26
2022-08-26T06:33:52.664Z,1009.24
2022-08-26T06:34:52.687Z,1009.26
2022-08-26T06:35:52.711Z,1009.29
2022-08-26T06:36:53.216Z,1009.29
2022-08-26T06:37:52.759Z,1009.30
2022-08-26T06:38:52.782Z,1009.30
2022-08-26T06:39:52.821Z,1009.29
2022-08-26T06:40:52.830Z,1009.27
2022-08-26T06:41:52.856Z,1009.26
2022-08-26T06:42:52.880Z,1009.29
2022-08-26T06:43:52.904Z,1009.25
2022-08-26T06:44:52.927Z,1009.28
2022-08-26T06:45:52.970Z,1009.29
2022-08-26T06:46:52.979Z,1009.30
2022-08-26T06:47:53.004Z,1009.29
2022-08-26T06:48:53.030Z,1009.26
2022-08-26T06:49:53.056Z,1009.26
2022-08-26T06:50:53.083Z,1009.27
2022-08-26T06:51:53.103Z,1009.27
2022-08-26T06:52:53.131Z,1009.28
2022-08-26T06:53:53.158Z,1009.25
2022-08-26T06:54:53.184Z,1009.28
2022-08-26T06:55:53.210Z,1009.26
2022-08-26T06:56:53.236Z,1009.23
2022-08-26T06:57:53.260Z,1009.22
2022-08-26T06:58:53.290Z,1009.24
2022-08-26T06:59:53.311Z,1009.21
2022-08-26T07:00:53.339Z,1009.24
2022-08-26T07:01:53.657Z,1009.27
2022-08-26T07:02:53.405Z,1009.26
2022-08-26T07:03:53.417Z,1009.28
2022-08-26T07:04:53.443Z,1009.27
2022-08-26T07:05:53.587Z,1009.23
2022-08-26T07:06:53.812Z,1009.25
2022-08-26T07:07:53.524Z,1009.24
2022-08-26T07:08:53.550Z,1009.24
2022-08-26T07:09:53.578Z,1009.22
2022-08-26T07:10:53.606Z,1009.23
2022-08-26T07:11:53.633Z,1009.23
2022-08-26T07:12:53.658Z,1009.21
2022-08-26T07:13:53.699Z,1009.18
2022-08-26T07:14:53.711Z,1009.17
2022-08-26T07:15:53.742Z,1009.17
2022-08-26T07:16:53.766Z,1009.20
2022-08-26T07:17:53.792Z,1009.19
2022-08-26T07:18:53.820Z,1009.17
2022-08-26T07:19:53.846Z,1009.22
2022-08-26T07:20:53.875Z,1009.19
2022-08-26T07:21:53.903Z,1009.20
2022-08-26T07:22:53.930Z,1009.22
2022-08-26T07:23:57.491Z,1009.17
2022-08-26T07:24:53.988Z,1009.22
2022-08-26T07:25:54.015Z,1009.17
2022-08-26T07:26:54.041Z,1009.14
2022-08-26T07:27:54.541Z,1009.14
2022-08-26T07:28:54.096Z,1009.15
2022-08-26T07:29:54.126Z,1009.14
2022-08-26T07:30:54.188Z,1009.15
2022-08-26T07:31:54.177Z,1009.11
2022-08-26T07:32:54.209Z,1009.09
2022-08-26T07:33:54.238Z,1009.06
2022-08-26T07:34:54.266Z,1009.05
2022-08-26T07:35:54.295Z,1009.09
2022-08-26T07:36:55.302Z,1009.10
2022-08-26T07:37:57.048Z,1009.09
2022-08-26T07:38:54.380Z,1009.08
2022-08-26T07:39:54.435Z,1009.11
2022-08-26T07:40:54.436Z,1009.08
2022-08-26T07:41:54.466Z,1009.05
2022-08-26T07:42:54.496Z,1009.07
2022-08-26T07:43:54.525Z,1009.04
2022-08-26T07:44:54.557Z,1009.09
2022-08-26T07:45:54.580Z,1009.04
2022-08-26T07:46:54.612Z,1009.11
2022-08-26T07:47:54.639Z,1009.06
2022-08-26T07:48:54.669Z,1009.05
2022-08-26T07:49:54.703Z,1009.04
2022-08-26T07:50:54.728Z,1009.04
2022-08-26T07:51:54.756Z,1009.07
2022-08-26T07:52:54.788Z,1009.06
2022-08-26T07:53:54.812Z,1009.03
2022-08-26T07:54:54.845Z,1009.03
2022-08-26T07:55:54.872Z,1008.96
2022-08-26T07:56:55.921Z,1009.03
2022-08-26T07:57:54.932Z,1008.95
2022-08-26T07:58:54.964Z,1008.99
2022-08-26T07:59:55.309Z,1008.96
2022-08-26T08:00:55.020Z,1008.92
2022-08-26T08:01:55.080Z,1008.92
2022-08-26T08:02:55.081Z,1008.96
2022-08-26T08:03:55.112Z,1008.94
2022-08-26T08:04:55.193Z,1008.97
2022-08-26T08:05:55.167Z,1008.93
2022-08-26T08:06:55.195Z,1008.99
2022-08-26T08:08:17.341Z,1008.97
2022-08-26T08:08:55.263Z,1008.99
2022-08-26T08:09:55.284Z,1009.00
2022-08-26T08:10:55.313Z,1008.98
2022-08-26T08:11:55.340Z,1008.97
2022-08-26T08:12:55.370Z,1008.97
2022-08-26T08:13:56.607Z,1008.99
2022-08-26T08:14:55.432Z,1009.00
2022-08-26T08:15:55.456Z,1008.99
2022-08-26T08:16:55.608Z,1009.01
2022-08-26T08:17:58.857Z,1009.03
2022-08-26T08:18:55.541Z,1009.00
2022-08-26T08:19:55.570Z,1008.96
2022-08-26T08:21:10.846Z,1008.99
2022-08-26T08:21:55.625Z,1008.99
2022-08-26T08:22:55.665Z,1008.96
2022-08-26T08:23:55.685Z,1008.98
2022-08-26T08:24:55.733Z,1009.05
2022-08-26T08:25:55.739Z,1009.00
2022-08-26T08:26:56.142Z,1009.01
2022-08-26T08:27:55.794Z,1009.05
2022-08-26T08:28:55.830Z,1008.96
2022-08-26T08:29:55.854Z,1008.98
2022-08-26T08:30:55.929Z,1008.94
2022-08-26T08:31:58.496Z,1008.95
2022-08-26T08:32:55.935Z,1008.94
2022-08-26T08:33:55.961Z,1008.90
2022-08-26T08:34:55.990Z,1008.92
2022-08-26T08:35:56.020Z,1008.88
2022-08-26T08:36:56.048Z,1008.85
2022-08-26T08:37:56.073Z,1008.86
2022-08-26T08:38:56.102Z,1008.86
2022-08-26T08:39:56.173Z,1008.82
2022-08-26T08:40:56.157Z,1008.77
2022-08-26T08:41:56.185Z,1008.85
2022-08-26T08:42:56.230Z,1008.82
2022-08-26T08:43:56.240Z,1008.80
2022-08-26T08:44:56.270Z,1008.83
2022-08-26T08:45:56.336Z,1008.79
2022-08-26T08:46:56.326Z,1008.82
2022-08-26T08:47:56.354Z,1008.80
2022-08-26T08:48:56.380Z,1008.80
2022-08-26T08:49:56.408Z,1008.77
2022-08-26T08:50:56.445Z,1008.79
2022-08-26T08:51:56.475Z,1008.78
2022-08-26T08:52:56.491Z,1008.79
2022-08-26T08:53:56.520Z,1008.74
2022-08-26T08:54:56.548Z,1008.78
2022-08-26T08:55:56.574Z,1008.75
2022-08-26T08:56:56.603Z,1008.76
2022-08-26T08:57:56.632Z,1008.74
2022-08-26T08:58:56.960Z,1008.76
2022-08-26T08:59:56.687Z,1008.75
2022-08-26T09:00:56.755Z,1008.75
2022-08-26T09:01:56.746Z,1008.74
2022-08-26T09:02:56.769Z,1008.69
2022-08-26T09:03:56.798Z,1008.72
2022-08-26T09:04:57.499Z,1008.70
2022-08-26T09:05:56.854Z,1008.71
2022-08-26T09:07:56.912Z,1008.67
2022-08-26T09:08:56.941Z,1008.64
2022-08-26T09:09:56.968Z,1008.65
2022-08-26T09:10:57.000Z,1008.70
2022-08-26T09:11:57.025Z,1008.70
2022-08-26T09:12:57.053Z,1008.71
2022-08-26T09:13:57.081Z,1008.67
2022-08-26T09:14:57.110Z,1008.69
2022-08-26T09:15:57.141Z,1008.71
2022-08-26T09:16:57.270Z,1008.70
2022-08-26T09:17:57.197Z,1008.70
2022-08-26T09:18:57.225Z,1008.68
2022-08-26T09:19:57.254Z,1008.70
2022-08-26T09:20:57.281Z,1008.77
2022-08-26T09:21:57.311Z,1008.77
2022-08-26T09:22:57.339Z,1008.75
2022-08-26T09:23:57.368Z,1008.74
2022-08-26T09:24:57.398Z,1008.73
2022-08-26T09:25:57.443Z,1008.75
2022-08-26T09:26:57.459Z,1008.77
2022-08-26T09:27:57.484Z,1008.80
2022-08-26T09:28:57.513Z,1008.73
2022-08-26T09:29:57.545Z,1008.80
2022-08-26T09:30:57.650Z,1008.82
2022-08-26T09:31:57.608Z,1008.79
2022-08-26T09:32:57.632Z,1008.76
2022-08-26T09:33:57.665Z,1008.78
2022-08-26T09:34:57.691Z,1008.75
2022-08-26T09:35:57.717Z,1008.74
2022-08-26T09:36:57.747Z,1008.71
2022-08-26T09:37:57.782Z,1008.72
2022-08-26T09:38:57.805Z,1008.77
2022-08-26T09:39:57.878Z,1008.76
2022-08-26T09:40:59.115Z,1008.76
2022-08-26T09:41:57.895Z,1008.73
2022-08-26T09:42:57.925Z,1008.72
2022-08-26T09:43:57.955Z,1008.65
2022-08-26T09:44:57.984Z,1008.62
2022-08-26T09:45:59.674Z,1008.60
2022-08-26T09:46:58.076Z,1008.58
2022-08-26T09:48:01.312Z,1008.56
2022-08-26T09:48:58.103Z,1008.55
2022-08-26T09:49:58.134Z,1008.51
2022-08-26T09:50:58.164Z,1008.47
2022-08-26T09:51:58.195Z,1008.47
2022-08-26T09:52:58.224Z,1008.44
2022-08-26T09:53:58.254Z,1008.38
2022-08-26T09:54:58.283Z,1008.38
2022-08-26T09:55:58.314Z,1008.34
2022-08-26T09:56:58.345Z,1008.30
2022-08-26T09:58:02.247Z,1008.24
2022-08-26T09:58:58.406Z,1008.23
2022-08-26T09:59:58.437Z,1008.22
2022-08-26T10:00:58.531Z,1008.20
2022-08-26T10:01:58.586Z,1008.18
2022-08-26T10:02:58.534Z,1008.18
2022-08-26T10:03:58.599Z,1008.17
2022-08-26T10:04:58.587Z,1008.16
2022-08-26T10:05:58.617Z,1008.14
2022-08-26T10:06:58.654Z,1008.05
2022-08-26T10:07:58.678Z,1008.05
2022-08-26T10:08:58.707Z,1008.07
2022-08-26T10:09:58.739Z,1008.05
2022-08-26T10:10:58.769Z,1007.98
2022-08-26T10:11:58.799Z,1007.95
2022-08-26T10:12:58.828Z,1007.88
2022-08-26T10:13:58.860Z,1007.90
2022-08-26T10:14:58.888Z,1007.88
2022-08-26T10:15:58.918Z,1007.83
2022-08-26T10:16:58.980Z,1007.79
2022-08-26T10:17:58.986Z,1007.83
2022-08-26T10:19:00.271Z,1007.79
2022-08-26T10:19:59.038Z,1007.76
2022-08-26T10:20:59.069Z,1007.71
2022-08-26T10:21:59.099Z,1007.68
2022-08-26T10:22:59.128Z,1007.70
2022-08-26T10:23:59.160Z,1007.71
2022-08-26T10:24:59.190Z,1007.79
2022-08-26T10:25:59.351Z,1007.66
2022-08-26T10:26:59.250Z,1007.68
2022-08-26T10:27:59.434Z,1007.61
2022-08-26T10:28:59.313Z,1007.67
2022-08-26T10:29:59.339Z,1007.71
2022-08-26T10:30:59.372Z,1007.67
2022-08-26T10:32:02.672Z,1007.67
2022-08-26T10:32:59.431Z,1007.62
2022-08-26T10:34:00.316Z,1007.60
2022-08-26T10:34:59.494Z,1007.55
2022-08-26T10:35:59.527Z,1007.59
2022-08-26T10:37:14.208Z,1007.65
2022-08-26T10:37:59.591Z,1007.58
2022-08-26T10:38:59.629Z,1007.58
2022-08-26T10:39:59.680Z,1007.60
2022-08-26T10:40:59.684Z,1007.60
2022-08-26T10:41:59.717Z,1007.57
2022-08-26T10:42:59.746Z,1007.56
2022-08-26T10:43:59.777Z,1007.52
2022-08-26T10:44:59.809Z,1007.53
2022-08-26T10:45:59.879Z,1007.49
2022-08-26T10:46:59.868Z,1007.48
2022-08-26T10:47:59.904Z,1007.48
2022-08-26T10:49:00.180Z,1007.48
2022-08-26T10:50:03.150Z,1007.42
2022-08-26T10:50:59.993Z,1007.48
2022-08-26T10:52:00.024Z,1007.50
2022-08-26T10:53:00.105Z,1007.48
2022-08-26T10:54:00.093Z,1007.50
2022-08-26T10:55:00.118Z,1007.44
2022-08-26T10:56:00.153Z,1007.39
2022-08-26T10:57:00.180Z,1007.43
2022-08-26T10:58:00.213Z,1007.38
2022-08-26T10:59:00.243Z,1007.39
2022-08-26T11:00:00.275Z,1007.40
2022-08-26T11:01:00.375Z,1007.38
2022-08-26T11:02:00.338Z,1007.33
2022-08-26T11:03:00.373Z,1007.33
2022-08-26T11:04:00.501Z,1007.29
2022-08-26T11:05:00.756Z,1007.29
2022-08-26T11:06:00.465Z,1007.31
2022-08-26T11:07:00.495Z,1007.29
2022-08-26T11:08:00.532Z,1007.26
2022-08-26T11:09:00.558Z,1007.23
2022-08-26T11:10:00.590Z,1007.22
2022-08-26T11:11:00.623Z,1007.26
2022-08-26T11:12:03.912Z,1007.30
2022-08-26T11:13:00.689Z,1007.31
2022-08-26T11:14:00.716Z,1007.33
2022-08-26T11:15:00.748Z,1007.31
2022-08-26T11:16:01.288Z,1007.30
2022-08-26T11:17:00.876Z,1007.31
2022-08-26T11:18:00.873Z,1007.24
2022-08-26T11:19:00.872Z,1007.26
2022-08-26T11:20:03.206Z,1007.23
2022-08-26T11:21:00.937Z,1007.20
2022-08-26T11:22:00.964Z,1007.19
2022-08-26T11:23:00.998Z,1007.13
2022-08-26T11:24:01.028Z,1007.11
2022-08-26T11:25:01.069Z,1007.16
2022-08-26T11:26:01.092Z,1007.15
2022-08-26T11:27:01.122Z,1007.10
2022-08-26T11:28:01.153Z,1007.09
2022-08-26T11:29:01.188Z,1007.06
2022-08-26T11:30:01.213Z,1007.01
2022-08-26T11:31:01.246Z,1006.99
2022-08-26T11:32:01.318Z,1006.98
2022-08-26T11:33:01.308Z,1006.94
2022-08-26T11:34:01.340Z,1006.92
2022-08-26T11:35:01.370Z,1006.88
2022-08-26T11:36:01.400Z,1006.89
2022-08-26T11:37:01.434Z,1006.96
2022-08-26T11:38:01.466Z,1006.95
2022-08-26T11:39:02.715Z,1006.96
2022-08-26T11:40:01.604Z,1006.98
2022-08-26T11:41:01.556Z,1007.01
2022-08-26T11:42:01.609Z,1007.21
2022-08-26T11:43:01.617Z,1007.13
2022-08-26T11:44:01.649Z,1007.18
2022-08-26T11:45:04.814Z,1007.18
2022-08-26T11:46:01.781Z,1007.30
2022-08-26T11:47:01.740Z,1007.25
2022-08-26T11:48:01.882Z,1007.23
2022-08-26T11:49:01.801Z,1007.13
2022-08-26T11:50:01.830Z,1007.15
2022-08-26T11:51:01.861Z,1007.13
2022-08-26T11:52:01.890Z,1007.23
2022-08-26T11:53:02.344Z,1007.17
2022-08-26T11:54:01.948Z,1007.15
2022-08-26T11:55:01.981Z,1007.27
2022-08-26T11:56:02.005Z,1007.33
2022-08-26T11:57:04.834Z,1007.40
2022-08-26T11:58:02.176Z,1007.46
2022-08-26T11:59:02.091Z,1007.51
2022-08-26T12:00:02.121Z,1007.48
2022-08-26T12:01:03.481Z,1007.54
2022-08-26T12:02:02.179Z,1007.62
2022-08-26T12:03:02.239Z,1007.60
2022-08-26T12:04:02.313Z,1007.58
2022-08-26T12:05:02.258Z,1007.65
2022-08-26T12:06:02.289Z,1007.64
2022-08-26T12:07:02.324Z,1007.67